createdAt,value
2018-10-04T00:02:28.780Z,96074.91
2018-10-04T00:05:33.370Z,96082.22
2018-10-04T00:08:37.792Z,96072.16
2018-10-04T00:11:42.122Z,96075.90
2018-10-04T00:14:46.765Z,96073.69
2018-10-04T00:17:51.141Z,96087.23
2018-10-04T00:20:55.600Z,96085.57
2018-10-04T00:23:59.948Z,96085.24
2018-10-04T00:27:04.705Z,96086.13
2018-10-04T00:30:09.043Z,96086.95
2018-10-04T00:33:13.510Z,96074.05
2018-10-04T00:36:17.844Z,96080.08
2018-10-04T00:39:22.191Z,96083.17
2018-10-04T00:42:26.720Z,96083.96
2018-10-04T00:45:31.090Z,96075.29
2018-10-04T00:48:35.518Z,96077.42
2018-10-04T00:51:39.841Z,96077.73
2018-10-04T00:54:44.911Z,96075.42
2018-10-04T00:57:49.476Z,96080.86
2018-10-04T01:00:53.774Z,96073.55
2018-10-04T01:03:58.108Z,96072.78
2018-10-04T01:07:02.456Z,96070.78
2018-10-04T01:10:08.109Z,96066.75
2018-10-04T01:13:12.452Z,96067.09
2018-10-04T01:16:16.857Z,96071.25
2018-10-04T01:19:21.212Z,96075.45
2018-10-04T01:22:25.544Z,96080.75
2018-10-04T01:25:30.008Z,96080.42
2018-10-04T01:28:34.358Z,96080.80
2018-10-04T01:31:39.051Z,96074.59
2018-10-04T01:34:43.341Z,96070.05
2018-10-04T01:37:47.714Z,96074.81
2018-10-04T01:40:52.072Z,96073.17
2018-10-04T01:43:56.548Z,96071.19
2018-10-04T01:47:00.980Z,96064.94
2018-10-04T01:50:05.301Z,96069.70
2018-10-04T01:53:09.633Z,96070.68
2018-10-04T01:56:14.174Z,96071.41
2018-10-04T01:59:18.611Z,96073.27
2018-10-04T02:02:22.959Z,96075.29
2018-10-04T02:05:27.300Z,96071.02
2018-10-04T02:08:31.648Z,96074.33
2018-10-04T02:11:36.041Z,96065.56
2018-10-04T02:14:40.365Z,96072.47
2018-10-04T02:17:44.718Z,96074.02
2018-10-04T02:20:49.044Z,96075.42
2018-10-04T02:23:53.348Z,96073.22
2018-10-04T02:26:58.000Z,96075.59
2018-10-04T02:30:02.345Z,96069.48
2018-10-04T02:33:06.721Z,96061.98
2018-10-04T02:36:11.048Z,96069.10
2018-10-04T02:39:15.364Z,96066.27
2018-10-04T02:42:19.700Z,96066.58
2018-10-04T02:45:24.016Z,96065.45
2018-10-04T02:48:28.368Z,96069.64
2018-10-04T02:51:32.893Z,96072.29
2018-10-04T02:54:37.214Z,96076.41
2018-10-04T02:57:41.531Z,96073.17
2018-10-04T03:00:45.943Z,96066.39
2018-10-04T03:03:50.345Z,96058.45
2018-10-04T03:06:54.760Z,96058.13
2018-10-04T03:09:59.081Z,96052.58
2018-10-04T03:13:03.589Z,96053.53
2018-10-04T03:16:08.444Z,96052.52
2018-10-04T03:19:12.998Z,96050.59
2018-10-04T03:22:17.341Z,96045.32
2018-10-04T03:25:21.653Z,96043.45
2018-10-04T03:28:25.964Z,96045.20
2018-10-04T03:31:31.608Z,96038.52
2018-10-04T03:34:36.893Z,96040.91
2018-10-04T03:37:42.059Z,96038.55
2018-10-04T03:40:46.379Z,96034.38
2018-10-04T03:43:50.809Z,96038.03
2018-10-04T03:46:55.137Z,96035.43
2018-10-04T03:49:59.846Z,96037.37
2018-10-04T03:53:04.148Z,96038.64
2018-10-04T03:56:08.452Z,96042.63
2018-10-04T03:59:19.416Z,96040.52
2018-10-04T04:02:23.744Z,96038.50
2018-10-04T04:05:29.061Z,96038.16
2018-10-04T04:08:35.073Z,96039.30
2018-10-04T04:11:39.493Z,96039.69
2018-10-04T04:14:43.813Z,96038.12
2018-10-04T04:17:48.172Z,96032.41
2018-10-04T04:20:52.533Z,96032.73
2018-10-04T04:23:57.173Z,96032.78
2018-10-04T04:27:01.507Z,96031.01
2018-10-04T04:30:05.840Z,96032.92
2018-10-04T04:33:10.160Z,96025.54
2018-10-04T04:36:14.974Z,96030.90
2018-10-04T04:39:19.321Z,96026.22
2018-10-04T04:42:24.048Z,96026.80
2018-10-04T04:45:28.561Z,96027.06
2018-10-04T04:48:33.053Z,96029.48
2018-10-04T04:51:37.472Z,96028.95
2018-10-04T04:55:45.361Z,96032.47
2018-10-04T04:58:49.821Z,96033.62
2018-10-04T05:01:54.168Z,96034.94
2018-10-04T05:04:58.757Z,96033.41
2018-10-04T05:08:04.541Z,96036.88
2018-10-04T05:11:08.960Z,96037.10
2018-10-04T05:14:14.065Z,96042.91
2018-10-04T05:17:18.461Z,96042.42
2018-10-04T05:20:22.781Z,96044.48
2018-10-04T05:23:27.148Z,96051.92
2018-10-04T05:26:31.577Z,96049.28
2018-10-04T05:29:35.901Z,96049.85
2018-10-04T05:32:40.217Z,96051.92
2018-10-04T05:35:44.661Z,96048.70
2018-10-04T05:38:49.018Z,96052.13
2018-10-04T05:41:53.383Z,96051.56
2018-10-04T05:44:57.897Z,96050.03
2018-10-04T05:48:02.156Z,96055.08
2018-10-04T05:51:06.464Z,96061.91
2018-10-04T05:54:10.910Z,96062.95
2018-10-04T05:57:15.336Z,96060.79
2018-10-04T06:00:42.948Z,96058.16
2018-10-04T06:03:47.312Z,96065.71
2018-10-04T06:06:51.902Z,96066.19
2018-10-04T06:09:56.281Z,96059.53
2018-10-04T06:13:01.572Z,96060.27
2018-10-04T06:16:05.970Z,96058.62
2018-10-04T06:19:10.557Z,96059.08
2018-10-04T06:25:30.191Z,96060.31
2018-10-04T06:28:34.754Z,96060.51
2018-10-04T06:31:39.016Z,96059.30
2018-10-04T06:34:43.511Z,96059.13
2018-10-04T06:37:47.988Z,96057.59
2018-10-04T06:40:52.387Z,96067.00
2018-10-04T06:43:56.773Z,96070.08
2018-10-04T06:47:01.091Z,96072.12
2018-10-04T06:50:05.691Z,96072.92
2018-10-04T06:53:10.105Z,96073.55
2018-10-04T06:56:14.449Z,96074.48
2018-10-04T06:59:18.841Z,96073.36
2018-10-04T07:02:23.192Z,96075.11
2018-10-04T07:05:27.644Z,96066.27
2018-10-04T07:08:33.238Z,96076.03
2018-10-04T07:11:37.624Z,96077.10
2018-10-04T07:14:42.210Z,96083.46
2018-10-04T07:17:46.560Z,96077.32
2018-10-04T07:20:51.039Z,96082.30
2018-10-04T07:23:55.792Z,96082.75
2018-10-04T07:27:00.140Z,96083.83
2018-10-04T07:30:04.730Z,96079.44
2018-10-04T07:33:09.645Z,96080.88
2018-10-04T07:36:14.029Z,96083.47
2018-10-04T07:39:18.342Z,96083.81
2018-10-04T07:42:22.690Z,96078.55
2018-10-04T07:45:26.939Z,96083.64
2018-10-04T07:48:31.335Z,96080.00
2018-10-04T07:51:35.743Z,96079.95
2018-10-04T07:54:40.211Z,96081.38
2018-10-04T07:57:44.609Z,96078.55
2018-10-04T08:00:49.233Z,96077.08
2018-10-04T08:03:53.545Z,96080.88
2018-10-04T08:06:57.865Z,96082.47
2018-10-04T08:10:02.203Z,96084.11
2018-10-04T08:13:06.612Z,96086.98
2018-10-04T08:16:11.132Z,96089.13
2018-10-04T08:19:15.453Z,96087.94
2018-10-04T08:22:19.784Z,96095.69
2018-10-04T08:25:24.096Z,96094.45
2018-10-04T08:28:28.399Z,96091.34
2018-10-04T08:31:32.692Z,96087.17
2018-10-04T08:34:37.031Z,96085.72
2018-10-04T08:37:41.341Z,96089.34
2018-10-04T08:40:45.655Z,96078.42
2018-10-04T08:43:49.989Z,96084.75
2018-10-04T08:46:54.306Z,96076.47
2018-10-04T08:49:59.005Z,96077.83
2018-10-04T08:53:03.299Z,96080.63
2018-10-04T08:56:07.982Z,96090.05
2018-10-04T08:59:12.297Z,96083.49
2018-10-04T09:02:16.600Z,96078.47
2018-10-04T09:05:21.016Z,96078.12
2018-10-04T09:08:25.323Z,96080.45
2018-10-04T09:11:29.623Z,96080.66
2018-10-04T09:14:33.928Z,96082.63
2018-10-04T09:17:38.244Z,96077.95
2018-10-04T09:20:42.555Z,96071.11
2018-10-04T09:23:46.861Z,96074.47
2018-10-04T09:26:51.189Z,96079.30
2018-10-04T09:30:00.654Z,96073.88
2018-10-04T09:33:04.955Z,96074.66
2018-10-04T09:36:09.445Z,96071.75
2018-10-04T09:39:13.756Z,96068.28
2018-10-04T09:42:18.272Z,96065.12
2018-10-04T09:45:22.750Z,96066.77
2018-10-04T09:48:27.159Z,96065.58
2018-10-04T09:51:36.758Z,96066.01
2018-10-04T09:54:46.392Z,96055.99
2018-10-04T09:57:50.757Z,96055.20
2018-10-04T10:01:00.272Z,96044.22
2018-10-04T10:04:05.560Z,96039.45
2018-10-04T10:07:09.889Z,96040.16
2018-10-04T10:10:14.296Z,96037.14
2018-10-04T10:13:18.615Z,96035.58
2018-10-04T10:16:23.372Z,96033.83
2018-10-04T10:19:27.771Z,96027.27
2018-10-04T10:22:32.134Z,96034.50
2018-10-04T10:25:36.504Z,96032.97
2018-10-04T10:28:40.908Z,96032.06
2018-10-04T10:31:45.272Z,96034.29
2018-10-04T10:34:50.000Z,96033.29
2018-10-04T10:37:54.429Z,96037.54
2018-10-04T10:40:59.155Z,96030.98
2018-10-04T10:44:03.495Z,96026.59
2018-10-04T10:47:07.801Z,96021.92
2018-10-04T10:50:12.203Z,96020.67
2018-10-04T10:53:16.868Z,96024.91
2018-10-04T10:56:21.165Z,96019.44
2018-10-04T10:59:25.634Z,96019.41
2018-10-04T11:02:30.337Z,96017.84
2018-10-04T11:05:34.857Z,96013.48
2018-10-04T11:08:39.193Z,96010.11
2018-10-04T11:11:43.498Z,96006.64
2018-10-04T11:14:47.783Z,96001.98
2018-10-04T11:17:52.179Z,95996.31
2018-10-04T11:20:56.412Z,95989.72
2018-10-04T11:24:00.724Z,95986.34
2018-10-04T11:27:05.032Z,95988.17
2018-10-04T11:30:09.541Z,95981.67
2018-10-04T11:33:13.938Z,95971.73
2018-10-04T11:36:18.159Z,95973.45
2018-10-04T11:39:22.495Z,95965.41
2018-10-04T11:42:26.793Z,95959.30
2018-10-04T11:45:38.183Z,95956.20
2018-10-04T11:48:45.065Z,95954.11
2018-10-04T11:51:49.461Z,95950.34
2018-10-04T11:54:53.883Z,95953.73
2018-10-04T11:57:58.211Z,95945.78
2018-10-04T12:01:02.565Z,95942.98
2018-10-04T12:04:07.046Z,95943.30
2018-10-04T12:07:11.443Z,95938.77
2018-10-04T12:10:15.694Z,95937.31
2018-10-04T12:13:20.025Z,95933.41
2018-10-04T12:16:24.346Z,95926.34
2018-10-04T12:19:28.653Z,95926.18
2018-10-04T12:22:32.971Z,95926.55
2018-10-04T12:25:37.277Z,95924.94
2018-10-04T12:28:41.588Z,95926.32
2018-10-04T12:31:45.919Z,95931.58
2018-10-04T12:34:50.261Z,95923.02
2018-10-04T12:37:54.551Z,95921.68
2018-10-04T12:40:58.860Z,95929.05
2018-10-04T12:44:03.331Z,95928.83
2018-10-04T12:47:08.540Z,95922.69
2018-10-04T12:50:12.893Z,95923.80
2018-10-04T12:53:17.245Z,95922.02
2018-10-04T12:56:21.536Z,95919.00
2018-10-04T12:59:25.927Z,95912.89
2018-10-04T13:02:30.226Z,95907.30
2018-10-04T13:05:34.552Z,95904.06
2018-10-04T13:08:38.937Z,95905.37
2018-10-04T13:11:43.320Z,95906.94
2018-10-04T13:14:47.719Z,95900.45
2018-10-04T13:17:52.065Z,95897.44
2018-10-04T13:20:56.573Z,95900.34
2018-10-04T13:24:00.974Z,95897.22
2018-10-04T13:27:05.336Z,95893.86
2018-10-04T13:30:09.781Z,95889.51
2018-10-04T13:33:14.383Z,95883.14
2018-10-04T13:36:18.781Z,95884.95
2018-10-04T13:39:23.220Z,95882.81
2018-10-04T13:42:27.545Z,95887.61
2018-10-04T13:45:31.898Z,95884.63
2018-10-04T13:48:36.289Z,95882.95
2018-10-04T13:51:40.747Z,95887.56
2018-10-04T13:54:45.223Z,95873.38
2018-10-04T13:57:50.000Z,95868.02
2018-10-04T14:00:54.644Z,95869.52
2018-10-04T14:03:58.999Z,95868.14
2018-10-04T14:07:03.478Z,95870.33
2018-10-04T14:10:08.008Z,95869.57
2018-10-04T14:13:13.492Z,95869.39
2018-10-04T14:16:17.998Z,95868.88
2018-10-04T14:19:22.617Z,95866.05
2018-10-04T14:22:27.054Z,95868.29
2018-10-04T14:25:31.569Z,95863.86
2018-10-04T14:28:36.486Z,95863.70
2018-10-04T14:31:42.495Z,95863.52
2018-10-04T14:34:47.038Z,95851.23
2018-10-04T14:37:51.478Z,95856.11
2018-10-04T14:40:55.953Z,95854.02
2018-10-04T14:44:00.386Z,95848.44
2018-10-04T14:47:04.882Z,95851.94
2018-10-04T14:50:09.817Z,95844.76
2018-10-04T14:53:14.341Z,95842.38
2018-10-04T14:56:19.209Z,95841.15
2018-10-04T14:59:23.679Z,95847.27
2018-10-04T15:02:28.376Z,95846.19
2018-10-04T15:05:33.210Z,95849.22
2018-10-04T15:08:37.584Z,95846.34
2018-10-04T15:11:43.352Z,95837.88
2018-10-04T15:14:47.817Z,95837.77
2018-10-04T15:17:52.461Z,95846.91
2018-10-04T15:20:56.895Z,95843.94
2018-10-04T15:24:01.530Z,95838.15
2018-10-04T15:27:06.482Z,95828.02
2018-10-04T15:30:10.885Z,95825.36
2018-10-04T15:33:15.272Z,95827.67
2018-10-04T15:36:19.721Z,95836.02
2018-10-04T15:39:24.217Z,95826.79
2018-10-04T15:42:28.571Z,95829.47
2018-10-04T15:45:33.197Z,95828.60
2018-10-04T15:48:37.625Z,95826.24
2018-10-04T15:51:42.567Z,95824.59
2018-10-04T15:54:47.220Z,95822.36
2018-10-04T15:57:51.592Z,95824.14
2018-10-04T16:00:55.997Z,95817.91
2018-10-04T16:04:00.368Z,95819.77
2018-10-04T16:07:04.893Z,95820.55
2018-10-04T16:10:10.032Z,95821.34
2018-10-04T16:13:14.562Z,95821.20
2018-10-04T16:16:19.019Z,95818.06
2018-10-04T16:19:23.652Z,95818.02
2018-10-04T16:22:27.968Z,95822.41
2018-10-04T16:25:32.772Z,95826.34
2018-10-04T16:28:37.358Z,95822.02
2018-10-04T16:31:42.902Z,95821.34
2018-10-04T16:34:47.344Z,95825.96
2018-10-04T16:37:51.792Z,95830.16
2018-10-04T16:40:56.458Z,95828.91
2018-10-04T16:44:00.918Z,95827.83
2018-10-04T16:47:05.761Z,95830.86
2018-10-04T16:50:10.722Z,95826.20
2018-10-04T16:53:15.220Z,95831.34
2018-10-04T16:56:19.836Z,95827.41
2018-10-04T16:59:24.168Z,95826.17
2018-10-04T17:02:28.927Z,95827.38
2018-10-04T17:05:33.405Z,95825.64
2018-10-04T17:08:37.902Z,95826.82
2018-10-04T17:11:42.717Z,95833.80
2018-10-04T17:14:47.419Z,95829.86
2018-10-04T17:17:51.877Z,95828.06
2018-10-04T17:20:56.436Z,95830.77
2018-10-04T17:24:00.814Z,95827.87
2018-10-04T17:27:05.424Z,95826.19
2018-10-04T17:30:09.814Z,95820.77
2018-10-04T17:33:14.568Z,95821.67
2018-10-04T17:36:19.060Z,95822.47
2018-10-04T17:39:23.414Z,95819.69
2018-10-04T17:42:27.750Z,95812.06
2018-10-04T17:45:33.328Z,95812.66
2018-10-04T17:48:37.646Z,95809.16
2018-10-04T17:51:42.933Z,95810.55
2018-10-04T17:54:47.948Z,95815.41
2018-10-04T17:57:52.456Z,95812.06
2018-10-04T18:00:57.246Z,95810.97
2018-10-04T18:04:01.615Z,95814.23
2018-10-04T18:07:06.584Z,95808.56
2018-10-04T18:10:11.437Z,95806.14
2018-10-04T18:13:16.032Z,95813.23
2018-10-04T18:16:20.407Z,95809.42
2018-10-04T18:19:24.869Z,95812.49
2018-10-04T18:22:29.200Z,95818.70
2018-10-04T18:25:33.540Z,95819.73
2018-10-04T18:28:37.916Z,95819.00
2018-10-04T18:31:42.845Z,95813.44
2018-10-04T18:34:47.239Z,95815.59
2018-10-04T18:37:51.602Z,95813.64
2018-10-04T18:40:56.018Z,95816.16
2018-10-04T18:44:00.480Z,95813.38
2018-10-04T18:47:04.781Z,95819.00
2018-10-04T18:50:09.617Z,95818.33
2018-10-04T18:53:14.074Z,95817.91
2018-10-04T18:56:18.435Z,95821.91
2018-10-04T18:59:22.883Z,95822.56
2018-10-04T19:02:27.224Z,95815.30
2018-10-04T19:05:31.934Z,95813.80
2018-10-04T19:08:37.078Z,95814.70
2018-10-04T19:11:44.000Z,95808.91
2018-10-04T19:14:48.344Z,95809.55
2018-10-04T19:17:52.701Z,95810.44
2018-10-04T19:20:57.068Z,95811.36
2018-10-04T19:24:01.529Z,95810.36
2018-10-04T19:27:06.219Z,95809.92
2018-10-04T19:30:10.762Z,95810.81
2018-10-04T19:33:15.372Z,95815.89
2018-10-04T19:36:20.179Z,95819.42
2018-10-04T19:39:24.786Z,95819.73
2018-10-04T19:42:29.610Z,95822.48
2018-10-04T19:45:34.423Z,95816.75
2018-10-04T19:48:38.932Z,95814.95
2018-10-04T19:51:43.502Z,95822.73
2018-10-04T19:54:48.059Z,95823.27
2018-10-04T19:57:52.702Z,95820.45
2018-10-04T20:00:57.689Z,95813.94
2018-10-04T20:04:02.170Z,95820.33
2018-10-04T20:07:06.701Z,95811.44
2018-10-04T20:10:11.597Z,95807.77
2018-10-04T20:13:16.209Z,95804.92
2018-10-04T20:16:20.599Z,95809.95
2018-10-04T20:19:25.317Z,95802.68
2018-10-04T20:22:29.752Z,95800.34
2018-10-04T20:25:34.314Z,95805.62
2018-10-04T20:28:39.532Z,95801.24
2018-10-04T20:31:44.224Z,95802.39
2018-10-04T20:34:48.721Z,95802.76
2018-10-04T20:37:53.926Z,95802.50
2018-10-04T20:40:58.430Z,95804.56
2018-10-04T20:44:03.110Z,95791.64
2018-10-04T20:47:07.688Z,95797.89
2018-10-04T20:50:12.378Z,95794.05
2018-10-04T20:53:17.123Z,95794.36
2018-10-04T20:56:21.507Z,95788.87
2018-10-04T20:59:26.284Z,95784.98
2018-10-04T21:02:30.747Z,95788.68
2018-10-04T21:05:36.863Z,95788.13
2018-10-04T21:08:41.454Z,95783.91
2018-10-04T21:11:46.230Z,95782.09
2018-10-04T21:14:50.898Z,95779.72
2018-10-04T21:17:55.356Z,95774.23
2018-10-04T21:20:59.958Z,95770.89
2018-10-04T21:24:04.555Z,95774.59
2018-10-04T21:27:09.062Z,95780.55
2018-10-04T21:30:13.542Z,95779.94
2018-10-04T21:33:18.444Z,95769.67
2018-10-04T21:36:23.141Z,95768.26
2018-10-04T21:39:27.807Z,95765.43
2018-10-04T21:42:32.305Z,95767.04
2018-10-04T21:45:37.973Z,95770.53
2018-10-04T21:48:42.868Z,95772.33
2018-10-04T21:51:47.353Z,95771.27
2018-10-04T21:54:52.732Z,95768.53
2018-10-04T21:58:02.016Z,95775.90
2018-10-04T22:01:06.641Z,95775.69
2018-10-04T22:04:10.984Z,95777.08
2018-10-04T22:07:15.441Z,95777.89
2018-10-04T22:10:19.733Z,95773.74
2018-10-04T22:13:24.153Z,95770.11
2018-10-04T22:16:28.450Z,95765.37
2018-10-04T22:19:32.812Z,95764.31
2018-10-04T22:22:37.142Z,95761.08
2018-10-04T22:25:41.636Z,95758.20
2018-10-04T22:28:46.016Z,95758.25
2018-10-04T22:31:50.871Z,95754.56
2018-10-04T22:34:55.233Z,95757.69
2018-10-04T22:37:59.884Z,95751.93
2018-10-04T22:41:04.192Z,95748.02
2018-10-04T22:44:08.513Z,95740.06
2018-10-04T22:47:12.808Z,95737.43
2018-10-04T22:50:17.216Z,95739.54
2018-10-04T22:53:21.519Z,95732.70
2018-10-04T22:56:25.804Z,95732.12
2018-10-04T22:59:30.768Z,95733.21
2018-10-04T23:02:35.476Z,95730.33
2018-10-04T23:05:39.773Z,95735.91
2018-10-04T23:08:44.202Z,95737.28
2018-10-04T23:11:49.316Z,95731.48
2018-10-04T23:14:54.394Z,95738.51
2018-10-04T23:17:58.879Z,95735.24
2018-10-04T23:21:03.330Z,95738.47
2018-10-04T23:24:07.688Z,95739.28
2018-10-04T23:27:12.042Z,95733.75
2018-10-04T23:30:16.442Z,95727.27
2018-10-04T23:33:20.923Z,95724.13
2018-10-04T23:36:25.200Z,95729.12
2018-10-04T23:39:29.546Z,95727.30
2018-10-04T23:42:34.117Z,95729.70
2018-10-04T23:45:38.855Z,95735.25
2018-10-04T23:48:43.208Z,95733.45
2018-10-04T23:51:47.532Z,95727.94
2018-10-04T23:54:52.784Z,95724.72
2018-10-04T23:57:57.192Z,95727.14
